sensor_id;sensor_type;location;lat;lon;timestamp;P1;durP1;ratioP1;P2;durP2;ratioP2
15595;SDS011;7898;48.658;9.068;2023-07-29T00:01:09;3.97;;;3.25;;
15595;SDS011;7898;48.658;9.068;2023-07-29T00:03:36;4.15;;;2.88;;
15595;SDS011;7898;48.658;9.068;2023-07-29T00:06:03;4.72;;;2.50;;
15595;SDS011;7898;48.658;9.068;2023-07-29T00:08:31;6.38;;;2.70;;
15595;SDS011;7898;48.658;9.068;2023-07-29T00:10:58;4.25;;;3.35;;
15595;SDS011;7898;48.658;9.068;2023-07-29T00:13:25;4.53;;;3.70;;
15595;SDS011;7898;48.658;9.068;2023-07-29T00:15:53;4.03;;;3.63;;
15595;SDS011;7898;48.658;9.068;2023-07-29T00:18:20;5.68;;;3.22;;
15595;SDS011;7898;48.658;9.068;2023-07-29T00:20:48;7.68;;;3.13;;
15595;SDS011;7898;48.658;9.068;2023-07-29T00:23:16;6.75;;;3.30;;
15595;SDS011;7898;48.658;9.068;2023-07-29T00:25:46;4.93;;;3.30;;
15595;SDS011;7898;48.658;9.068;2023-07-29T00:28:13;5.45;;;3.03;;
15595;SDS011;7898;48.658;9.068;2023-07-29T00:30:40;4.88;;;2.92;;
15595;SDS011;7898;48.658;9.068;2023-07-29T00:33:06;9.55;;;3.10;;
15595;SDS011;7898;48.658;9.068;2023-07-29T00:35:34;6.90;;;2.90;;
15595;SDS011;7898;48.658;9.068;2023-07-29T00:38:01;3.42;;;2.90;;
15595;SDS011;7898;48.658;9.068;2023-07-29T00:40:28;4.53;;;2.67;;
15595;SDS011;7898;48.658;9.068;2023-07-29T00:42:57;5.22;;;2.60;;
15595;SDS011;7898;48.658;9.068;2023-07-29T00:45:24;3.03;;;2.50;;
15595;SDS011;7898;48.658;9.068;2023-07-29T00:47:52;6.10;;;3.00;;
15595;SDS011;7898;48.658;9.068;2023-07-29T00:50:19;5.85;;;2.63;;
15595;SDS011;7898;48.658;9.068;2023-07-29T00:52:47;6.78;;;2.72;;
15595;SDS011;7898;48.658;9.068;2023-07-29T00:55:15;3.13;;;2.42;;
15595;SDS011;7898;48.658;9.068;2023-07-29T00:57:42;5.63;;;2.42;;
15595;SDS011;7898;48.658;9.068;2023-07-29T01:00:14;5.43;;;2.78;;
15595;SDS011;7898;48.658;9.068;2023-07-29T01:02:42;9.00;;;2.80;;
15595;SDS011;7898;48.658;9.068;2023-07-29T01:05:10;6.75;;;2.67;;
15595;SDS011;7898;48.658;9.068;2023-07-29T01:07:47;5.07;;;2.97;;
15595;SDS011;7898;48.658;9.068;2023-07-29T01:10:23;3.80;;;2.22;;
15595;SDS011;7898;48.658;9.068;2023-07-29T01:13:00;8.80;;;3.05;;
15595;SDS011;7898;48.658;9.068;2023-07-29T01:15:33;4.85;;;3.05;;
15595;SDS011;7898;48.658;9.068;2023-07-29T01:18:06;6.43;;;2.67;;
15595;SDS011;7898;48.658;9.068;2023-07-29T01:20:37;6.18;;;2.53;;
15595;SDS011;7898;48.658;9.068;2023-07-29T01:23:07;6.93;;;3.10;;
15595;SDS011;7898;48.658;9.068;2023-07-29T01:25:36;5.57;;;2.70;;
15595;SDS011;7898;48.658;9.068;2023-07-29T01:28:03;6.10;;;3.05;;
15595;SDS011;7898;48.658;9.068;2023-07-29T01:30:30;3.60;;;2.47;;
15595;SDS011;7898;48.658;9.068;2023-07-29T01:33:04;3.95;;;3.05;;
15595;SDS011;7898;48.658;9.068;2023-07-29T01:35:39;3.00;;;2.70;;
15595;SDS011;7898;48.658;9.068;2023-07-29T01:38:09;3.55;;;2.53;;
15595;SDS011;7898;48.658;9.068;2023-07-29T01:40:42;5.70;;;2.85;;
15595;SDS011;7898;48.658;9.068;2023-07-29T01:43:10;5.13;;;2.80;;
15595;SDS011;7898;48.658;9.068;2023-07-29T01:45:37;5.38;;;2.72;;
15595;SDS011;7898;48.658;9.068;2023-07-29T01:48:04;7.40;;;2.90;;
15595;SDS011;7898;48.658;9.068;2023-07-29T01:50:32;6.32;;;2.65;;
15595;SDS011;7898;48.658;9.068;2023-07-29T01:52:58;6.90;;;2.47;;
15595;SDS011;7898;48.658;9.068;2023-07-29T01:55:25;3.53;;;2.55;;
15595;SDS011;7898;48.658;9.068;2023-07-29T01:57:54;4.43;;;2.65;;
15595;SDS011;7898;48.658;9.068;2023-07-29T02:00:21;4.20;;;2.42;;
15595;SDS011;7898;48.658;9.068;2023-07-29T02:02:47;5.03;;;2.70;;
15595;SDS011;7898;48.658;9.068;2023-07-29T02:05:14;5.47;;;2.75;;
15595;SDS011;7898;48.658;9.068;2023-07-29T02:07:41;5.60;;;2.60;;
15595;SDS011;7898;48.658;9.068;2023-07-29T02:10:08;6.13;;;2.80;;
15595;SDS011;7898;48.658;9.068;2023-07-29T02:12:35;5.05;;;2.55;;
15595;SDS011;7898;48.658;9.068;2023-07-29T02:15:04;8.90;;;3.15;;
15595;SDS011;7898;48.658;9.068;2023-07-29T02:17:31;7.25;;;2.70;;
15595;SDS011;7898;48.658;9.068;2023-07-29T02:19:58;6.05;;;2.50;;
15595;SDS011;7898;48.658;9.068;2023-07-29T02:22:25;2.60;;;2.22;;
15595;SDS011;7898;48.658;9.068;2023-07-29T02:24:52;4.93;;;2.90;;
15595;SDS011;7898;48.658;9.068;2023-07-29T02:27:19;8.07;;;2.80;;
15595;SDS011;7898;48.658;9.068;2023-07-29T02:29:45;6.65;;;2.60;;
15595;SDS011;7898;48.658;9.068;2023-07-29T02:32:14;3.38;;;2.58;;
15595;SDS011;7898;48.658;9.068;2023-07-29T02:34:41;4.43;;;3.00;;
15595;SDS011;7898;48.658;9.068;2023-07-29T02:37:07;4.88;;;2.35;;
15595;SDS011;7898;48.658;9.068;2023-07-29T02:39:34;6.45;;;2.72;;
15595;SDS011;7898;48.658;9.068;2023-07-29T02:42:01;4.97;;;2.88;;
15595;SDS011;7898;48.658;9.068;2023-07-29T02:44:28;4.53;;;2.70;;
15595;SDS011;7898;48.658;9.068;2023-07-29T02:46:55;3.97;;;2.70;;
15595;SDS011;7898;48.658;9.068;2023-07-29T02:49:23;4.03;;;2.67;;
15595;SDS011;7898;48.658;9.068;2023-07-29T02:51:50;4.57;;;2.15;;
15595;SDS011;7898;48.658;9.068;2023-07-29T02:54:17;5.63;;;2.45;;
15595;SDS011;7898;48.658;9.068;2023-07-29T02:56:44;5.38;;;2.67;;
15595;SDS011;7898;48.658;9.068;2023-07-29T02:59:11;3.50;;;3.03;;
15595;SDS011;7898;48.658;9.068;2023-07-29T03:01:38;6.13;;;2.55;;
15595;SDS011;7898;48.658;9.068;2023-07-29T03:04:04;5.32;;;3.03;;
15595;SDS011;7898;48.658;9.068;2023-07-29T03:06:33;6.28;;;2.70;;
15595;SDS011;7898;48.658;9.068;2023-07-29T03:08:59;2.88;;;2.25;;
15595;SDS011;7898;48.658;9.068;2023-07-29T03:11:26;4.53;;;2.20;;
15595;SDS011;7898;48.658;9.068;2023-07-29T03:13:53;6.75;;;2.55;;
15595;SDS011;7898;48.658;9.068;2023-07-29T03:16:20;4.18;;;2.17;;
15595;SDS011;7898;48.658;9.068;2023-07-29T03:18:47;2.60;;;2.00;;
15595;SDS011;7898;48.658;9.068;2023-07-29T03:21:14;4.47;;;2.45;;
15595;SDS011;7898;48.658;9.068;2023-07-29T03:23:43;9.45;;;3.00;;
15595;SDS011;7898;48.658;9.068;2023-07-29T03:26:10;3.35;;;2.75;;
15595;SDS011;7898;48.658;9.068;2023-07-29T03:28:38;6.28;;;2.38;;
15595;SDS011;7898;48.658;9.068;2023-07-29T03:31:06;3.03;;;2.40;;
15595;SDS011;7898;48.658;9.068;2023-07-29T03:33:33;5.07;;;2.53;;
15595;SDS011;7898;48.658;9.068;2023-07-29T03:36:00;3.90;;;2.28;;
15595;SDS011;7898;48.658;9.068;2023-07-29T03:38:27;2.45;;;2.00;;
15595;SDS011;7898;48.658;9.068;2023-07-29T03:40:55;5.22;;;2.70;;
15595;SDS011;7898;48.658;9.068;2023-07-29T03:43:23;4.85;;;2.28;;
15595;SDS011;7898;48.658;9.068;2023-07-29T03:45:50;2.58;;;2.38;;
15595;SDS011;7898;48.658;9.068;2023-07-29T03:48:16;3.72;;;2.70;;
15595;SDS011;7898;48.658;9.068;2023-07-29T03:50:43;5.72;;;2.83;;
15595;SDS011;7898;48.658;9.068;2023-07-29T03:53:10;4.13;;;2.60;;
15595;SDS011;7898;48.658;9.068;2023-07-29T03:55:37;4.47;;;2.67;;
15595;SDS011;7898;48.658;9.068;2023-07-29T03:58:05;4.72;;;2.78;;
15595;SDS011;7898;48.658;9.068;2023-07-29T04:00:32;4.10;;;2.83;;
15595;SDS011;7898;48.658;9.068;2023-07-29T04:02:59;4.78;;;2.72;;
15595;SDS011;7898;48.658;9.068;2023-07-29T04:05:26;5.35;;;3.00;;
15595;SDS011;7898;48.658;9.068;2023-07-29T04:07:53;3.70;;;2.72;;
15595;SDS011;7898;48.658;9.068;2023-07-29T04:10:20;2.83;;;2.33;;
15595;SDS011;7898;48.658;9.068;2023-07-29T04:12:47;4.32;;;2.33;;
15595;SDS011;7898;48.658;9.068;2023-07-29T04:15:16;3.65;;;2.40;;
15595;SDS011;7898;48.658;9.068;2023-07-29T04:17:42;3.00;;;2.33;;
15595;SDS011;7898;48.658;9.068;2023-07-29T04:20:10;2.80;;;2.22;;
15595;SDS011;7898;48.658;9.068;2023-07-29T04:22:37;3.60;;;2.55;;
15595;SDS011;7898;48.658;9.068;2023-07-29T04:25:04;4.47;;;2.95;;
15595;SDS011;7898;48.658;9.068;2023-07-29T04:27:32;3.67;;;2.75;;
15595;SDS011;7898;48.658;9.068;2023-07-29T04:29:59;5.80;;;2.88;;
15595;SDS011;7898;48.658;9.068;2023-07-29T04:32:27;3.10;;;2.45;;
15595;SDS011;7898;48.658;9.068;2023-07-29T04:34:54;4.85;;;2.80;;
15595;SDS011;7898;48.658;9.068;2023-07-29T04:37:21;5.53;;;2.55;;
15595;SDS011;7898;48.658;9.068;2023-07-29T04:39:48;4.40;;;2.95;;
15595;SDS011;7898;48.658;9.068;2023-07-29T04:42:14;3.65;;;3.17;;
15595;SDS011;7898;48.658;9.068;2023-07-29T04:44:42;3.60;;;2.90;;
15595;SDS011;7898;48.658;9.068;2023-07-29T04:47:09;5.72;;;2.75;;
15595;SDS011;7898;48.658;9.068;2023-07-29T04:49:37;2.92;;;2.47;;
15595;SDS011;7898;48.658;9.068;2023-07-29T04:52:05;5.00;;;2.45;;
15595;SDS011;7898;48.658;9.068;2023-07-29T04:54:32;8.02;;;2.80;;
15595;SDS011;7898;48.658;9.068;2023-07-29T04:56:59;3.35;;;2.88;;
15595;SDS011;7898;48.658;9.068;2023-07-29T04:59:26;4.85;;;2.90;;
15595;SDS011;7898;48.658;9.068;2023-07-29T05:01:52;4.45;;;2.50;;
15595;SDS011;7898;48.658;9.068;2023-07-29T05:04:19;4.13;;;3.22;;
15595;SDS011;7898;48.658;9.068;2023-07-29T05:06:47;3.40;;;3.03;;
15595;SDS011;7898;48.658;9.068;2023-07-29T05:09:16;6.22;;;3.00;;
15595;SDS011;7898;48.658;9.068;2023-07-29T05:11:45;5.45;;;3.00;;
15595;SDS011;7898;48.658;9.068;2023-07-29T05:14:12;5.68;;;3.03;;
15595;SDS011;7898;48.658;9.068;2023-07-29T05:16:39;3.92;;;2.92;;
15595;SDS011;7898;48.658;9.068;2023-07-29T05:19:06;8.77;;;2.80;;
15595;SDS011;7898;48.658;9.068;2023-07-29T05:21:33;5.38;;;2.90;;
15595;SDS011;7898;48.658;9.068;2023-07-29T05:24:02;5.07;;;3.30;;
15595;SDS011;7898;48.658;9.068;2023-07-29T05:26:29;5.63;;;2.83;;
15595;SDS011;7898;48.658;9.068;2023-07-29T05:28:56;7.43;;;3.70;;
15595;SDS011;7898;48.658;9.068;2023-07-29T05:31:22;6.68;;;3.38;;
15595;SDS011;7898;48.658;9.068;2023-07-29T05:33:49;5.10;;;3.03;;
15595;SDS011;7898;48.658;9.068;2023-07-29T05:36:16;4.72;;;3.20;;
15595;SDS011;7898;48.658;9.068;2023-07-29T05:38:43;5.07;;;3.10;;
15595;SDS011;7898;48.658;9.068;2023-07-29T05:41:11;4.05;;;3.50;;
15595;SDS011;7898;48.658;9.068;2023-07-29T05:43:38;4.78;;;3.35;;
15595;SDS011;7898;48.658;9.068;2023-07-29T05:46:05;4.55;;;3.70;;
15595;SDS011;7898;48.658;9.068;2023-07-29T05:48:32;4.90;;;3.25;;
15595;SDS011;7898;48.658;9.068;2023-07-29T05:50:59;7.70;;;4.25;;
15595;SDS011;7898;48.658;9.068;2023-07-29T05:53:26;4.40;;;2.92;;
15595;SDS011;7898;48.658;9.068;2023-07-29T05:55:52;6.45;;;3.53;;
15595;SDS011;7898;48.658;9.068;2023-07-29T05:58:21;4.82;;;3.38;;
15595;SDS011;7898;48.658;9.068;2023-07-29T06:00:47;4.72;;;2.95;;
15595;SDS011;7898;48.658;9.068;2023-07-29T06:03:14;6.03;;;2.85;;
15595;SDS011;7898;48.658;9.068;2023-07-29T06:05:41;5.05;;;3.08;;
15595;SDS011;7898;48.658;9.068;2023-07-29T06:08:08;5.05;;;3.20;;
15595;SDS011;7898;48.658;9.068;2023-07-29T06:10:35;6.13;;;3.13;;
15595;SDS011;7898;48.658;9.068;2023-07-29T06:13:03;4.10;;;3.38;;
15595;SDS011;7898;48.658;9.068;2023-07-29T06:15:31;3.42;;;2.97;;
15595;SDS011;7898;48.658;9.068;2023-07-29T06:17:58;2.88;;;2.60;;
15595;SDS011;7898;48.658;9.068;2023-07-29T06:20:24;3.80;;;2.42;;
15595;SDS011;7898;48.658;9.068;2023-07-29T06:22:51;3.53;;;2.30;;
15595;SDS011;7898;48.658;9.068;2023-07-29T06:25:18;2.38;;;1.98;;
15595;SDS011;7898;48.658;9.068;2023-07-29T06:27:45;3.80;;;2.17;;
15595;SDS011;7898;48.658;9.068;2023-07-29T06:30:12;4.45;;;2.35;;
15595;SDS011;7898;48.658;9.068;2023-07-29T06:32:40;3.63;;;2.03;;
15595;SDS011;7898;48.658;9.068;2023-07-29T06:35:07;3.40;;;2.13;;
15595;SDS011;7898;48.658;9.068;2023-07-29T06:37:34;4.22;;;2.53;;
15595;SDS011;7898;48.658;9.068;2023-07-29T06:40:01;5.43;;;2.53;;
15595;SDS011;7898;48.658;9.068;2023-07-29T06:42:28;3.17;;;2.53;;
15595;SDS011;7898;48.658;9.068;2023-07-29T06:44:55;3.15;;;2.47;;
15595;SDS011;7898;48.658;9.068;2023-07-29T06:47:22;5.35;;;2.85;;
15595;SDS011;7898;48.658;9.068;2023-07-29T06:49:50;5.38;;;2.72;;
15595;SDS011;7898;48.658;9.068;2023-07-29T06:52:17;6.43;;;2.75;;
15595;SDS011;7898;48.658;9.068;2023-07-29T06:54:44;4.07;;;2.35;;
15595;SDS011;7898;48.658;9.068;2023-07-29T06:57:10;5.65;;;2.78;;
15595;SDS011;7898;48.658;9.068;2023-07-29T06:59:37;4.05;;;2.70;;
15595;SDS011;7898;48.658;9.068;2023-07-29T07:02:05;4.85;;;3.00;;
15595;SDS011;7898;48.658;9.068;2023-07-29T07:04:32;4.70;;;3.00;;
15595;SDS011;7898;48.658;9.068;2023-07-29T07:07:01;3.50;;;2.72;;
15595;SDS011;7898;48.658;9.068;2023-07-29T07:09:27;7.13;;;3.72;;
15595;SDS011;7898;48.658;9.068;2023-07-29T07:11:54;4.30;;;2.67;;
15595;SDS011;7898;48.658;9.068;2023-07-29T07:14:21;3.90;;;2.33;;
15595;SDS011;7898;48.658;9.068;2023-07-29T07:16:48;5.40;;;2.83;;
15595;SDS011;7898;48.658;9.068;2023-07-29T07:19:15;3.30;;;2.42;;
15595;SDS011;7898;48.658;9.068;2023-07-29T07:21:42;2.42;;;2.08;;
15595;SDS011;7898;48.658;9.068;2023-07-29T07:24:10;4.88;;;2.00;;
15595;SDS011;7898;48.658;9.068;2023-07-29T07:26:37;2.55;;;1.80;;
15595;SDS011;7898;48.658;9.068;2023-07-29T07:29:04;2.90;;;1.92;;
15595;SDS011;7898;48.658;9.068;2023-07-29T07:31:32;2.08;;;1.80;;
15595;SDS011;7898;48.658;9.068;2023-07-29T07:33:59;2.25;;;1.75;;
15595;SDS011;7898;48.658;9.068;2023-07-29T07:36:28;3.05;;;1.80;;
15595;SDS011;7898;48.658;9.068;2023-07-29T07:38:54;5.57;;;1.80;;
15595;SDS011;7898;48.658;9.068;2023-07-29T07:41:23;3.58;;;1.70;;
15595;SDS011;7898;48.658;9.068;2023-07-29T07:43:50;2.20;;;1.98;;
15595;SDS011;7898;48.658;9.068;2023-07-29T07:46:16;2.38;;;2.00;;
15595;SDS011;7898;48.658;9.068;2023-07-29T07:48:43;2.03;;;1.80;;
15595;SDS011;7898;48.658;9.068;2023-07-29T07:51:10;3.47;;;1.98;;
15595;SDS011;7898;48.658;9.068;2023-07-29T07:53:38;2.42;;;1.98;;
15595;SDS011;7898;48.658;9.068;2023-07-29T07:56:05;4.30;;;2.33;;
15595;SDS011;7898;48.658;9.068;2023-07-29T07:58:33;2.72;;;2.10;;
15595;SDS011;7898;48.658;9.068;2023-07-29T08:01:01;3.08;;;2.38;;
15595;SDS011;7898;48.658;9.068;2023-07-29T08:03:28;3.65;;;2.95;;
15595;SDS011;7898;48.658;9.068;2023-07-29T08:05:55;2.65;;;2.45;;
15595;SDS011;7898;48.658;9.068;2023-07-29T08:08:22;3.47;;;2.35;;
15595;SDS011;7898;48.658;9.068;2023-07-29T08:10:49;2.67;;;2.10;;
15595;SDS011;7898;48.658;9.068;2023-07-29T08:13:16;3.08;;;2.45;;
15595;SDS011;7898;48.658;9.068;2023-07-29T08:15:46;3.05;;;1.88;;
15595;SDS011;7898;48.658;9.068;2023-07-29T08:18:13;2.33;;;1.92;;
15595;SDS011;7898;48.658;9.068;2023-07-29T08:20:40;2.95;;;2.65;;
15595;SDS011;7898;48.658;9.068;2023-07-29T08:23:07;5.30;;;4.53;;
15595;SDS011;7898;48.658;9.068;2023-07-29T08:25:34;2.97;;;2.33;;
15595;SDS011;7898;48.658;9.068;2023-07-29T08:28:01;5.10;;;1.70;;
15595;SDS011;7898;48.658;9.068;2023-07-29T08:30:28;2.35;;;1.80;;
15595;SDS011;7898;48.658;9.068;2023-07-29T08:32:56;2.53;;;1.80;;
15595;SDS011;7898;48.658;9.068;2023-07-29T08:35:23;2.55;;;1.95;;
15595;SDS011;7898;48.658;9.068;2023-07-29T08:37:50;2.10;;;1.67;;
15595;SDS011;7898;48.658;9.068;2023-07-29T08:40:17;2.70;;;1.63;;
15595;SDS011;7898;48.658;9.068;2023-07-29T08:42:44;2.42;;;2.00;;
15595;SDS011;7898;48.658;9.068;2023-07-29T08:45:13;2.35;;;2.00;;
15595;SDS011;7898;48.658;9.068;2023-07-29T08:47:42;1.70;;;1.48;;
15595;SDS011;7898;48.658;9.068;2023-07-29T08:50:11;4.47;;;2.17;;
15595;SDS011;7898;48.658;9.068;2023-07-29T08:52:39;4.85;;;1.98;;
15595;SDS011;7898;48.658;9.068;2023-07-29T08:55:07;2.88;;;2.10;;
15595;SDS011;7898;48.658;9.068;2023-07-29T08:57:34;4.07;;;1.75;;
15595;SDS011;7898;48.658;9.068;2023-07-29T09:00:02;2.35;;;2.13;;
15595;SDS011;7898;48.658;9.068;2023-07-29T09:02:29;2.33;;;1.70;;
15595;SDS011;7898;48.658;9.068;2023-07-29T09:04:56;2.80;;;1.77;;
15595;SDS011;7898;48.658;9.068;2023-07-29T09:07:24;2.10;;;1.38;;
15595;SDS011;7898;48.658;9.068;2023-07-29T09:09:52;2.28;;;1.58;;
15595;SDS011;7898;48.658;9.068;2023-07-29T09:12:19;2.53;;;1.45;;
15595;SDS011;7898;48.658;9.068;2023-07-29T09:14:46;1.40;;;1.30;;
15595;SDS011;7898;48.658;9.068;2023-07-29T09:17:13;2.45;;;1.77;;
15595;SDS011;7898;48.658;9.068;2023-07-29T09:19:40;1.95;;;1.60;;
15595;SDS011;7898;48.658;9.068;2023-07-29T09:22:16;2.42;;;1.50;;
15595;SDS011;7898;48.658;9.068;2023-07-29T09:24:45;1.70;;;1.48;;
15595;SDS011;7898;48.658;9.068;2023-07-29T09:27:17;1.98;;;1.52;;
15595;SDS011;7898;48.658;9.068;2023-07-29T09:29:50;3.67;;;1.60;;
15595;SDS011;7898;48.658;9.068;2023-07-29T09:32:17;3.17;;;1.40;;
15595;SDS011;7898;48.658;9.068;2023-07-29T09:34:45;2.25;;;1.67;;
15595;SDS011;7898;48.658;9.068;2023-07-29T09:37:15;2.40;;;2.00;;
15595;SDS011;7898;48.658;9.068;2023-07-29T09:39:45;1.92;;;1.75;;
15595;SDS011;7898;48.658;9.068;2023-07-29T09:42:16;2.22;;;1.65;;
15595;SDS011;7898;48.658;9.068;2023-07-29T09:44:44;9.25;;;2.15;;
15595;SDS011;7898;48.658;9.068;2023-07-29T09:47:18;2.00;;;1.77;;
15595;SDS011;7898;48.658;9.068;2023-07-29T09:49:47;2.88;;;2.00;;
15595;SDS011;7898;48.658;9.068;2023-07-29T09:52:14;1.85;;;1.67;;
15595;SDS011;7898;48.658;9.068;2023-07-29T09:54:42;4.90;;;2.20;;
15595;SDS011;7898;48.658;9.068;2023-07-29T09:57:11;2.13;;;1.90;;
15595;SDS011;7898;48.658;9.068;2023-07-29T09:59:39;3.72;;;2.40;;
15595;SDS011;7898;48.658;9.068;2023-07-29T10:02:07;2.13;;;1.80;;
15595;SDS011;7898;48.658;9.068;2023-07-29T10:04:39;2.08;;;1.90;;
15595;SDS011;7898;48.658;9.068;2023-07-29T10:07:08;2.90;;;1.80;;
15595;SDS011;7898;48.658;9.068;2023-07-29T10:09:36;3.78;;;2.53;;
15595;SDS011;7898;48.658;9.068;2023-07-29T10:12:06;2.35;;;1.80;;
15595;SDS011;7898;48.658;9.068;2023-07-29T10:14:33;3.22;;;2.10;;
15595;SDS011;7898;48.658;9.068;2023-07-29T10:17:01;3.45;;;2.10;;
15595;SDS011;7898;48.658;9.068;2023-07-29T10:19:29;2.83;;;1.75;;
15595;SDS011;7898;48.658;9.068;2023-07-29T10:21:58;3.22;;;2.00;;
15595;SDS011;7898;48.658;9.068;2023-07-29T10:24:28;3.05;;;1.90;;
15595;SDS011;7898;48.658;9.068;2023-07-29T10:26:57;2.47;;;2.17;;
15595;SDS011;7898;48.658;9.068;2023-07-29T10:29:28;2.47;;;1.90;;
15595;SDS011;7898;48.658;9.068;2023-07-29T10:31:57;2.67;;;2.00;;
15595;SDS011;7898;48.658;9.068;2023-07-29T10:34:28;2.50;;;2.10;;
15595;SDS011;7898;48.658;9.068;2023-07-29T10:36:56;2.58;;;2.22;;
15595;SDS011;7898;48.658;9.068;2023-07-29T10:39:24;2.50;;;2.30;;
15595;SDS011;7898;48.658;9.068;2023-07-29T10:41:55;2.22;;;2.03;;
15595;SDS011;7898;48.658;9.068;2023-07-29T10:44:46;1.95;;;1.85;;
15595;SDS011;7898;48.658;9.068;2023-07-29T10:47:15;3.03;;;2.38;;
15595;SDS011;7898;48.658;9.068;2023-07-29T10:49:44;4.05;;;2.85;;
15595;SDS011;7898;48.658;9.068;2023-07-29T10:52:12;3.25;;;2.20;;
15595;SDS011;7898;48.658;9.068;2023-07-29T10:54:43;4.40;;;2.20;;
15595;SDS011;7898;48.658;9.068;2023-07-29T10:57:14;4.80;;;2.08;;
15595;SDS011;7898;48.658;9.068;2023-07-29T10:59:43;4.20;;;3.08;;
15595;SDS011;7898;48.658;9.068;2023-07-29T11:02:22;2.20;;;2.00;;
15595;SDS011;7898;48.658;9.068;2023-07-29T11:04:55;2.50;;;1.90;;
15595;SDS011;7898;48.658;9.068;2023-07-29T11:07:22;2.47;;;2.08;;
15595;SDS011;7898;48.658;9.068;2023-07-29T11:09:54;3.90;;;1.90;;
15595;SDS011;7898;48.658;9.068;2023-07-29T11:12:41;2.50;;;1.48;;
15595;SDS011;7898;48.658;9.068;2023-07-29T11:15:19;2.45;;;2.10;;
15595;SDS011;7898;48.658;9.068;2023-07-29T11:17:48;2.22;;;2.03;;
15595;SDS011;7898;48.658;9.068;2023-07-29T11:20:17;2.00;;;1.70;;
15595;SDS011;7898;48.658;9.068;2023-07-29T11:22:45;1.98;;;1.77;;
15595;SDS011;7898;48.658;9.068;2023-07-29T11:25:13;2.55;;;2.10;;
15595;SDS011;7898;48.658;9.068;2023-07-29T11:27:41;2.03;;;1.80;;
15595;SDS011;7898;48.658;9.068;2023-07-29T11:30:08;2.55;;;1.98;;
15595;SDS011;7898;48.658;9.068;2023-07-29T11:32:38;2.80;;;2.10;;
15595;SDS011;7898;48.658;9.068;2023-07-29T11:35:06;2.83;;;2.03;;
15595;SDS011;7898;48.658;9.068;2023-07-29T11:37:35;1.88;;;1.77;;
15595;SDS011;7898;48.658;9.068;2023-07-29T11:40:02;2.38;;;2.10;;
15595;SDS011;7898;48.658;9.068;2023-07-29T11:42:31;2.15;;;1.92;;
15595;SDS011;7898;48.658;9.068;2023-07-29T11:44:59;2.50;;;2.17;;
15595;SDS011;7898;48.658;9.068;2023-07-29T11:47:26;3.38;;;2.15;;
15595;SDS011;7898;48.658;9.068;2023-07-29T11:49:57;3.17;;;2.00;;
15595;SDS011;7898;48.658;9.068;2023-07-29T11:52:25;2.15;;;1.83;;
15595;SDS011;7898;48.658;9.068;2023-07-29T11:54:53;3.05;;;2.20;;
15595;SDS011;7898;48.658;9.068;2023-07-29T11:57:20;2.78;;;1.88;;
15595;SDS011;7898;48.658;9.068;2023-07-29T11:59:47;3.25;;;1.80;;
15595;SDS011;7898;48.658;9.068;2023-07-29T12:02:14;1.95;;;1.70;;
15595;SDS011;7898;48.658;9.068;2023-07-29T12:04:44;2.88;;;2.58;;
15595;SDS011;7898;48.658;9.068;2023-07-29T12:07:14;2.20;;;2.00;;
15595;SDS011;7898;48.658;9.068;2023-07-29T12:09:43;2.40;;;1.75;;
15595;SDS011;7898;48.658;9.068;2023-07-29T12:12:10;2.83;;;2.20;;
15595;SDS011;7898;48.658;9.068;2023-07-29T12:14:37;2.65;;;1.77;;
15595;SDS011;7898;48.658;9.068;2023-07-29T12:17:05;2.63;;;2.22;;
15595;SDS011;7898;48.658;9.068;2023-07-29T12:19:32;2.13;;;1.73;;
15595;SDS011;7898;48.658;9.068;2023-07-29T12:22:01;2.80;;;2.22;;
15595;SDS011;7898;48.658;9.068;2023-07-29T12:24:30;2.13;;;1.70;;
15595;SDS011;7898;48.658;9.068;2023-07-29T12:26:58;2.67;;;2.08;;
15595;SDS011;7898;48.658;9.068;2023-07-29T12:29:25;2.10;;;1.90;;
15595;SDS011;7898;48.658;9.068;2023-07-29T12:31:56;4.75;;;2.28;;
15595;SDS011;7898;48.658;9.068;2023-07-29T12:34:25;2.55;;;1.80;;
15595;SDS011;7898;48.658;9.068;2023-07-29T12:36:53;2.92;;;2.20;;
15595;SDS011;7898;48.658;9.068;2023-07-29T12:39:21;2.17;;;1.90;;
15595;SDS011;7898;48.658;9.068;2023-07-29T12:41:52;2.47;;;2.08;;
15595;SDS011;7898;48.658;9.068;2023-07-29T12:44:20;2.28;;;1.77;;
15595;SDS011;7898;48.658;9.068;2023-07-29T12:46:48;7.57;;;2.00;;
15595;SDS011;7898;48.658;9.068;2023-07-29T12:49:16;2.70;;;2.03;;
15595;SDS011;7898;48.658;9.068;2023-07-29T12:51:42;2.22;;;2.03;;
15595;SDS011;7898;48.658;9.068;2023-07-29T12:54:09;2.47;;;2.10;;
15595;SDS011;7898;48.658;9.068;2023-07-29T12:56:36;2.97;;;1.90;;
15595;SDS011;7898;48.658;9.068;2023-07-29T12:59:04;2.08;;;1.88;;
15595;SDS011;7898;48.658;9.068;2023-07-29T13:01:31;2.60;;;2.05;;
15595;SDS011;7898;48.658;9.068;2023-07-29T13:03:58;3.10;;;1.90;;
15595;SDS011;7898;48.658;9.068;2023-07-29T13:06:25;1.90;;;1.70;;
15595;SDS011;7898;48.658;9.068;2023-07-29T13:08:52;2.03;;;1.83;;
15595;SDS011;7898;48.658;9.068;2023-07-29T13:11:19;2.17;;;1.98;;
15595;SDS011;7898;48.658;9.068;2023-07-29T13:13:46;3.55;;;1.70;;
15595;SDS011;7898;48.658;9.068;2023-07-29T13:16:14;2.67;;;1.95;;
15595;SDS011;7898;48.658;9.068;2023-07-29T13:18:42;1.92;;;1.77;;
15595;SDS011;7898;48.658;9.068;2023-07-29T13:21:09;4.35;;;2.20;;
15595;SDS011;7898;48.658;9.068;2023-07-29T13:23:36;2.15;;;1.75;;
15595;SDS011;7898;48.658;9.068;2023-07-29T13:26:03;2.55;;;1.90;;
15595;SDS011;7898;48.658;9.068;2023-07-29T13:28:30;3.30;;;1.83;;
15595;SDS011;7898;48.658;9.068;2023-07-29T13:30:57;2.30;;;1.52;;
15595;SDS011;7898;48.658;9.068;2023-07-29T13:33:25;2.25;;;1.83;;
15595;SDS011;7898;48.658;9.068;2023-07-29T13:35:52;2.45;;;2.00;;
15595;SDS011;7898;48.658;9.068;2023-07-29T13:38:19;2.30;;;1.80;;
15595;SDS011;7898;48.658;9.068;2023-07-29T13:40:46;2.50;;;2.13;;
15595;SDS011;7898;48.658;9.068;2023-07-29T13:43:15;2.92;;;2.08;;
15595;SDS011;7898;48.658;9.068;2023-07-29T13:45:42;3.00;;;1.73;;
15595;SDS011;7898;48.658;9.068;2023-07-29T13:48:09;6.40;;;2.00;;
15595;SDS011;7898;48.658;9.068;2023-07-29T13:50:37;3.53;;;2.03;;
15595;SDS011;7898;48.658;9.068;2023-07-29T13:53:04;3.40;;;1.67;;
15595;SDS011;7898;48.658;9.068;2023-07-29T13:55:31;2.72;;;2.00;;
15595;SDS011;7898;48.658;9.068;2023-07-29T13:57:58;3.25;;;1.98;;
15595;SDS011;7898;48.658;9.068;2023-07-29T14:00:25;1.67;;;1.48;;
15595;SDS011;7898;48.658;9.068;2023-07-29T14:02:52;2.22;;;1.95;;
15595;SDS011;7898;48.658;9.068;2023-07-29T14:05:19;2.83;;;2.13;;
15595;SDS011;7898;48.658;9.068;2023-07-29T14:07:47;4.28;;;1.90;;
15595;SDS011;7898;48.658;9.068;2023-07-29T14:10:14;4.40;;;2.10;;
15595;SDS011;7898;48.658;9.068;2023-07-29T14:12:41;2.45;;;2.08;;
15595;SDS011;7898;48.658;9.068;2023-07-29T14:15:08;5.05;;;2.17;;
15595;SDS011;7898;48.658;9.068;2023-07-29T14:17:35;3.50;;;2.38;;
15595;SDS011;7898;48.658;9.068;2023-07-29T14:20:02;2.78;;;2.13;;
15595;SDS011;7898;48.658;9.068;2023-07-29T14:22:30;2.65;;;2.05;;
15595;SDS011;7898;48.658;9.068;2023-07-29T14:24:58;2.08;;;1.63;;
15595;SDS011;7898;48.658;9.068;2023-07-29T14:27:25;2.30;;;2.10;;
15595;SDS011;7898;48.658;9.068;2023-07-29T14:29:51;2.22;;;1.90;;
15595;SDS011;7898;48.658;9.068;2023-07-29T14:32:18;2.33;;;1.83;;
15595;SDS011;7898;48.658;9.068;2023-07-29T14:34:45;2.00;;;1.80;;
15595;SDS011;7898;48.658;9.068;2023-07-29T14:37:12;4.57;;;1.80;;
15595;SDS011;7898;48.658;9.068;2023-07-29T14:39:39;2.33;;;2.13;;
15595;SDS011;7898;48.658;9.068;2023-07-29T14:42:07;2.65;;;1.98;;
15595;SDS011;7898;48.658;9.068;2023-07-29T14:44:34;3.40;;;1.90;;
15595;SDS011;7898;48.658;9.068;2023-07-29T14:47:01;1.95;;;1.85;;
15595;SDS011;7898;48.658;9.068;2023-07-29T14:49:28;2.13;;;1.92;;
15595;SDS011;7898;48.658;9.068;2023-07-29T14:51:54;2.47;;;1.77;;
15595;SDS011;7898;48.658;9.068;2023-07-29T14:54:21;2.50;;;2.05;;
15595;SDS011;7898;48.658;9.068;2023-07-29T14:56:48;2.80;;;1.90;;
15595;SDS011;7898;48.658;9.068;2023-07-29T14:59:17;4.55;;;1.88;;
15595;SDS011;7898;48.658;9.068;2023-07-29T15:01:43;2.55;;;2.10;;
15595;SDS011;7898;48.658;9.068;2023-07-29T15:04:10;2.17;;;1.98;;